Middleton, WI (53562)

5:15 AM CDT on March 27, 2015 (GMT -0500)
Middleton | | Change Station
CLOSE
Current Station
Airport
Location: Middleton,
Elevation: 928 ft
Nearby Weather Stations

Elev 928 ft 43.12 °N, 89.53 °W | Updated 20 minutes ago

Scattered Clouds
Scattered Clouds
21 °F
Feels Like 12 °F
N
7
Wind Variable Wind from North

Today
High -- | Low -- °F
--% Chance of Precip.
Yesterday
High -- | Low -- °F
Precip. -- in
6:49 AM 7:18 PM
Waxing Crescent, 51% visible
Pressure 30.16 in
Visibility 10.0 miles
Clouds Scattered Clouds 3400 ft
Windchill 12 °F
Dew Point 9 °F
Humidity 60%
Rainfall 0.00 in
Snow Depth Not available.
UV 0 out of 12
Pollen 5.10 out of 12
Air Quality Not available.
Flu Activity Not available.
METAR KC29 270955Z AUTO 36006KT 10SM SCT034 M06/M13 A3016 RMK AO1 T10621128

More Conditions Fewer Conditions

Pressure 30.16 in
Visibility 10.0 miles
Clouds Scattered Clouds 3400 ft
Windchill 12 °F
Dew Point 9 °F
Humidity 60%
Rainfall 0.00 in
Snow Depth Not available.
UV 0 out of 12
Pollen 5.10 out of 12
Air Quality Not available.
Flu Activity Not available.
METAR KC29 270955Z AUTO 36006KT 10SM SCT034 M06/M13 A3016 RMK AO1 T10621128

More Conditions Fewer Conditions

10-Day Weather Forecast

Almanac

Astronomy

Mar. 27, 2015 Rise Set
Actual Time
Civil Twilight
Nautical Twilight
Astronomical Twilight
Moon
Length of Visible Light
Length of Day
Tomorrow will be .
, % of the Moon is Illuminated

Today's Extremes

State Highs State Lows

Community

WunderPhotos

Upload Photos

1,808,705 photos uploaded!

WunderBlogs® & News

Nearby

Air Quality

  Air Quality AQ Index Pollutant
Not available.

Snow Depth

Station Depth Elevation

Earthquake Activity

City Distance Mag. Time & Date
Minimum magnitude displayed is 2.5.

Coastal Water Temperatures

Place Temperature

Stations

Nearby Weather Stations

Station Location Temp. Windchill Dew Point Humidity Wind Precip. Elev Updated Type